createdAt,value
2018-12-12T00:00:56.369Z,4.50
2018-12-12T00:03:24.488Z,4.70
2018-12-12T00:05:57.616Z,4.70
2018-12-12T00:08:25.895Z,4.70
2018-12-12T00:10:54.078Z,4.70
2018-12-12T00:13:22.188Z,4.30
2018-12-12T00:15:50.542Z,4.70
2018-12-12T00:18:18.913Z,4.70
2018-12-12T00:20:47.078Z,4.70
2018-12-12T00:23:16.092Z,3.90
2018-12-12T00:25:44.178Z,4.60
2018-12-12T00:28:12.250Z,4.60
2018-12-12T00:30:40.295Z,4.50
2018-12-12T00:33:08.378Z,4.50
2018-12-12T00:35:36.628Z,4.00
2018-12-12T00:38:04.856Z,4.50
2018-12-12T00:40:32.905Z,4.40
2018-12-12T00:43:01.098Z,4.30
2018-12-12T00:45:29.577Z,4.30
2018-12-12T00:47:57.737Z,4.30
2018-12-12T00:50:25.892Z,4.40
2018-12-12T00:52:54.037Z,4.40
2018-12-12T00:55:22.256Z,4.00
2018-12-12T00:57:51.147Z,4.40
2018-12-12T01:00:19.403Z,4.40
2018-12-12T01:02:48.123Z,4.40
2018-12-12T01:08:16.289Z,4.40
2018-12-12T01:10:44.384Z,4.30
2018-12-12T01:13:12.495Z,4.30
2018-12-12T01:15:40.645Z,4.20
2018-12-12T01:18:08.792Z,4.30
2018-12-12T01:20:37.014Z,4.30
2018-12-12T01:23:05.298Z,4.30
2018-12-12T01:25:33.447Z,4.30
2018-12-12T01:28:01.718Z,4.30
2018-12-12T01:30:29.859Z,4.30
2018-12-12T01:32:58.040Z,4.30
2018-12-12T01:35:26.141Z,3.80
2018-12-12T01:37:54.322Z,4.20
2018-12-12T01:40:22.450Z,4.20
2018-12-12T01:42:50.644Z,3.80
2018-12-12T01:45:18.807Z,4.20
2018-12-12T01:47:46.966Z,4.20
2018-12-12T01:50:15.056Z,4.30
2018-12-12T01:52:43.321Z,4.40
2018-12-12T01:55:11.986Z,4.50
2018-12-12T01:57:40.159Z,3.80
2018-12-12T02:00:08.392Z,4.50
2018-12-12T02:02:36.522Z,4.50
2018-12-12T02:05:04.725Z,4.50
2018-12-12T02:07:32.770Z,4.20
2018-12-12T02:10:00.845Z,4.60
2018-12-12T02:12:29.162Z,4.60
2018-12-12T02:14:57.300Z,4.60
2018-12-12T02:17:25.338Z,4.60
2018-12-12T02:22:18.711Z,4.60
2018-12-12T02:24:56.386Z,4.60
2018-12-12T02:27:24.617Z,4.50
2018-12-12T02:29:52.696Z,4.40
2018-12-12T02:32:20.745Z,4.40
2018-12-12T02:34:48.843Z,4.30
2018-12-12T02:37:17.009Z,4.30
2018-12-12T02:39:45.064Z,4.40
2018-12-12T02:42:13.148Z,4.10
2018-12-12T02:44:41.279Z,4.30
2018-12-12T02:47:09.498Z,4.30
2018-12-12T02:49:37.603Z,4.40
2018-12-12T02:52:05.674Z,4.40
2018-12-12T02:54:33.784Z,4.50
2018-12-12T02:57:02.581Z,4.50
2018-12-12T02:59:30.716Z,4.40
2018-12-12T03:01:58.836Z,4.40
2018-12-12T03:04:27.104Z,4.30
2018-12-12T03:06:55.225Z,4.20
2018-12-12T03:09:23.303Z,4.10
2018-12-12T03:11:51.438Z,4.10
2018-12-12T03:14:29.197Z,4.10
2018-12-12T03:16:57.289Z,4.00
2018-12-12T03:19:26.477Z,3.90
2018-12-12T03:21:54.617Z,3.90
2018-12-12T03:24:22.743Z,4.00
2018-12-12T03:26:50.860Z,4.00
2018-12-12T03:29:18.950Z,4.00
2018-12-12T03:31:47.085Z,4.00
2018-12-12T03:34:15.165Z,3.90
2018-12-12T03:36:43.308Z,3.80
2018-12-12T03:39:11.630Z,3.90
2018-12-12T03:41:39.726Z,3.90
2018-12-12T03:44:08.275Z,3.40
2018-12-12T03:46:36.364Z,3.90
2018-12-12T03:49:04.668Z,3.90
2018-12-12T03:51:32.700Z,3.90
2018-12-12T03:54:00.795Z,3.90
2018-12-12T03:56:28.957Z,3.90
2018-12-12T03:58:57.130Z,3.90
2018-12-12T04:01:25.238Z,3.90
2018-12-12T04:04:02.907Z,3.80
2018-12-12T04:06:31.092Z,3.90
2018-12-12T04:08:59.175Z,4.00
2018-12-12T04:11:27.312Z,4.00
2018-12-12T04:14:14.016Z,4.00
2018-12-12T04:16:42.216Z,4.00
2018-12-12T04:19:10.655Z,4.00
2018-12-12T04:21:38.711Z,3.90
2018-12-12T04:24:06.806Z,4.00
2018-12-12T04:26:34.915Z,4.00
2018-12-12T04:29:03.048Z,4.10
2018-12-12T04:31:31.205Z,4.00
2018-12-12T04:33:59.226Z,4.10
2018-12-12T04:39:30.327Z,4.10
2018-12-12T04:41:58.762Z,4.10
2018-12-12T04:44:27.178Z,4.10
2018-12-12T04:46:55.436Z,4.10
2018-12-12T04:49:23.546Z,4.10
2018-12-12T04:51:51.745Z,4.10
2018-12-12T04:54:19.835Z,4.10
2018-12-12T04:56:48.030Z,4.10
2018-12-12T04:59:16.467Z,4.10
2018-12-12T05:01:44.542Z,4.10
2018-12-12T05:04:12.633Z,4.10
2018-12-12T05:06:40.807Z,4.10
2018-12-12T05:09:08.930Z,4.00
2018-12-12T05:11:37.134Z,3.80
2018-12-12T05:14:05.235Z,4.00
2018-12-12T05:16:34.034Z,4.00
2018-12-12T05:19:02.192Z,3.70
2018-12-12T05:21:30.278Z,3.90
2018-12-12T05:23:58.713Z,3.80
2018-12-12T05:26:26.875Z,3.80
2018-12-12T05:28:55.549Z,3.80
2018-12-12T05:31:23.685Z,3.10
2018-12-12T05:33:51.858Z,3.70
2018-12-12T05:36:19.933Z,3.80
2018-12-12T05:38:48.021Z,3.80
2018-12-12T05:41:16.123Z,3.80
2018-12-12T05:43:44.285Z,3.80
2018-12-12T05:46:12.456Z,3.80
2018-12-12T05:48:40.592Z,3.80
2018-12-12T05:51:08.757Z,3.80
2018-12-12T05:53:36.916Z,3.70
2018-12-12T05:56:05.025Z,3.70
2018-12-12T05:58:33.089Z,3.70
2018-12-12T06:01:01.370Z,3.70
2018-12-12T06:03:29.415Z,3.60
2018-12-12T06:06:02.630Z,3.70
2018-12-12T06:08:30.671Z,3.60
2018-12-12T06:10:58.822Z,3.60
2018-12-12T06:13:29.072Z,3.60
2018-12-12T06:15:58.092Z,3.50
2018-12-12T06:18:26.390Z,3.40
2018-12-12T06:20:54.515Z,3.40
2018-12-12T06:23:22.652Z,3.50
2018-12-12T06:25:51.198Z,3.60
2018-12-12T06:28:26.009Z,3.50
2018-12-12T06:30:55.210Z,3.40
2018-12-12T06:33:23.395Z,3.50
2018-12-12T06:35:52.539Z,3.50
2018-12-12T06:38:20.742Z,3.50
2018-12-12T06:40:50.100Z,3.50
2018-12-12T06:43:19.843Z,3.50
2018-12-12T06:45:53.232Z,3.10
2018-12-12T06:48:21.478Z,3.50
2018-12-12T06:50:49.686Z,3.50
2018-12-12T06:53:17.846Z,3.50
2018-12-12T06:55:45.967Z,3.50
2018-12-12T06:58:14.124Z,3.00
2018-12-12T07:00:42.264Z,2.90
2018-12-12T07:03:10.382Z,3.60
2018-12-12T07:05:38.556Z,3.70
2018-12-12T07:08:06.697Z,3.60
2018-12-12T07:10:34.844Z,3.60
2018-12-12T07:13:02.916Z,3.70
2018-12-12T07:15:31.050Z,3.50
2018-12-12T07:17:59.186Z,3.70
2018-12-12T07:20:27.376Z,3.70
2018-12-12T07:22:55.436Z,3.30
2018-12-12T07:25:23.666Z,3.70
2018-12-12T07:27:51.781Z,3.70
2018-12-12T07:30:19.964Z,3.30
2018-12-12T07:32:48.217Z,3.70
2018-12-12T07:35:16.511Z,3.70
2018-12-12T07:37:44.882Z,3.70
2018-12-12T07:40:13.101Z,3.60
2018-12-12T07:42:41.231Z,3.70
2018-12-12T07:45:14.453Z,3.60
2018-12-12T07:47:42.649Z,3.70
2018-12-12T07:50:10.922Z,3.80
2018-12-12T07:52:39.075Z,3.80
2018-12-12T07:55:21.159Z,3.70
2018-12-12T07:57:49.355Z,3.80
2018-12-12T08:00:17.624Z,3.50
2018-12-12T08:02:45.688Z,3.90
2018-12-12T08:05:13.988Z,3.40
2018-12-12T08:07:42.114Z,3.90
2018-12-12T08:10:10.325Z,3.90
2018-12-12T08:12:38.479Z,4.00
2018-12-12T08:15:08.620Z,4.00
2018-12-12T08:17:36.749Z,4.10
2018-12-12T08:20:05.496Z,4.10
2018-12-12T08:22:33.982Z,4.20
2018-12-12T08:25:02.330Z,4.20
2018-12-12T08:27:30.434Z,4.30
2018-12-12T08:29:58.528Z,4.40
2018-12-12T08:32:26.636Z,4.60
2018-12-12T08:34:54.845Z,4.40
2018-12-12T08:37:22.989Z,4.50
2018-12-12T08:39:51.082Z,4.50
2018-12-12T08:42:19.209Z,4.70
2018-12-12T08:44:47.403Z,4.80
2018-12-12T08:47:15.540Z,4.70
2018-12-12T08:49:43.654Z,5.20
2018-12-12T08:52:11.827Z,5.20
2018-12-12T08:54:40.334Z,5.30
2018-12-12T08:57:08.739Z,5.40
2018-12-12T08:59:36.893Z,5.30
2018-12-12T09:02:05.532Z,5.30
2018-12-12T09:04:34.168Z,5.30
2018-12-12T09:07:02.201Z,5.20
2018-12-12T09:09:30.206Z,5.10
2018-12-12T09:11:58.304Z,5.00
2018-12-12T09:14:26.514Z,4.90
2018-12-12T09:16:55.014Z,4.90
2018-12-12T09:19:23.190Z,4.90
2018-12-12T09:21:51.305Z,4.80
2018-12-12T09:24:19.501Z,5.30
2018-12-12T09:26:48.368Z,4.80
2018-12-12T09:29:16.589Z,4.80
2018-12-12T09:31:44.789Z,4.70
2018-12-12T09:34:12.948Z,4.70
2018-12-12T09:36:41.147Z,4.70
2018-12-12T09:39:09.231Z,4.70
2018-12-12T09:41:37.391Z,4.80
2018-12-12T09:44:05.876Z,4.80
2018-12-12T09:46:34.096Z,4.80
2018-12-12T09:49:02.293Z,4.90
2018-12-12T09:51:30.418Z,4.90
2018-12-12T09:53:59.474Z,5.00
2018-12-12T09:56:27.605Z,5.00
2018-12-12T09:58:55.784Z,4.90
2018-12-12T10:01:24.001Z,5.00
2018-12-12T10:03:52.223Z,5.00
2018-12-12T10:06:20.344Z,5.10
2018-12-12T10:08:48.464Z,5.20
2018-12-12T10:11:16.535Z,5.20
2018-12-12T10:13:44.717Z,5.30
2018-12-12T10:16:12.863Z,5.30
2018-12-12T10:18:41.004Z,5.30
2018-12-12T10:21:09.267Z,5.40
2018-12-12T10:23:37.411Z,5.50
2018-12-12T10:26:05.635Z,5.60
2018-12-12T10:28:33.763Z,5.60
2018-12-12T10:31:01.852Z,5.70
2018-12-12T10:33:29.963Z,5.70
2018-12-12T10:35:58.035Z,5.80
2018-12-12T10:38:26.164Z,5.90
2018-12-12T10:40:54.308Z,5.90
2018-12-12T10:43:22.616Z,5.90
2018-12-12T10:45:55.921Z,5.40
2018-12-12T10:48:24.006Z,6.00
2018-12-12T10:50:52.148Z,6.10
2018-12-12T10:53:20.205Z,6.10
2018-12-12T10:55:48.369Z,6.20
2018-12-12T10:58:16.453Z,6.50
2018-12-12T11:01:47.582Z,6.80
2018-12-12T11:04:18.066Z,7.10
2018-12-12T11:06:46.242Z,7.40
2018-12-12T11:09:14.350Z,7.70
2018-12-12T11:11:42.557Z,7.80
2018-12-12T11:14:10.671Z,7.90
2018-12-12T11:16:38.798Z,7.90
2018-12-12T11:19:06.960Z,8.00
2018-12-12T11:21:35.198Z,7.90
2018-12-12T11:24:03.359Z,7.30
2018-12-12T11:26:31.518Z,7.40
2018-12-12T11:28:59.604Z,8.10
2018-12-12T11:31:27.683Z,8.40
2018-12-12T11:33:56.121Z,8.40
2018-12-12T11:36:24.255Z,9.40
2018-12-12T11:38:52.868Z,9.80
2018-12-12T11:41:20.988Z,10.40
2018-12-12T11:43:49.125Z,11.00
2018-12-12T11:46:17.233Z,11.20
2018-12-12T11:48:45.395Z,11.30
2018-12-12T11:51:13.484Z,10.90
2018-12-12T11:53:41.544Z,10.60
2018-12-12T11:56:09.709Z,11.00
2018-12-12T11:58:37.841Z,10.20
2018-12-12T12:01:06.015Z,10.60
2018-12-12T12:03:34.242Z,10.50
2018-12-12T12:06:02.390Z,10.30
2018-12-12T12:08:31.179Z,10.30
2018-12-12T12:10:59.217Z,9.80
2018-12-12T12:13:27.315Z,9.60
2018-12-12T12:15:55.561Z,9.30
2018-12-12T12:18:23.677Z,9.10
2018-12-12T12:20:51.952Z,8.90
2018-12-12T12:23:20.244Z,8.60
2018-12-12T12:25:48.609Z,8.40
2018-12-12T12:28:16.893Z,8.30
2018-12-12T12:30:45.253Z,8.10
2018-12-12T12:33:13.576Z,8.00
2018-12-12T12:35:42.270Z,8.00
2018-12-12T12:38:10.410Z,7.80
2018-12-12T12:40:38.573Z,7.60
2018-12-12T12:43:07.696Z,7.20
2018-12-12T12:45:35.783Z,7.50
2018-12-12T12:48:03.886Z,7.40
2018-12-12T12:50:32.687Z,7.30
2018-12-12T12:53:00.821Z,7.10
2018-12-12T12:55:29.504Z,7.20
2018-12-12T12:57:58.480Z,7.10
2018-12-12T13:00:26.670Z,7.10
2018-12-12T13:02:54.817Z,7.10
2018-12-12T13:05:23.024Z,7.10
2018-12-12T13:07:51.191Z,7.10
2018-12-12T13:10:19.875Z,7.00
2018-12-12T13:12:48.520Z,6.90
2018-12-12T13:15:17.216Z,6.80
2018-12-12T13:17:45.413Z,6.80
2018-12-12T13:20:13.734Z,6.80
2018-12-12T13:22:42.070Z,6.70
2018-12-12T13:25:11.199Z,6.70
2018-12-12T13:27:39.354Z,6.70
2018-12-12T13:30:07.863Z,6.70
2018-12-12T13:32:36.142Z,6.70
2018-12-12T13:35:09.609Z,6.60
2018-12-12T13:37:37.768Z,6.60
2018-12-12T13:40:06.601Z,6.60
2018-12-12T13:42:34.722Z,6.60
2018-12-12T13:45:02.822Z,6.60
2018-12-12T13:47:31.065Z,6.60
2018-12-12T13:49:59.193Z,6.70
2018-12-12T13:52:27.440Z,6.60
2018-12-12T13:54:55.650Z,6.70
2018-12-12T13:57:23.812Z,6.50
2018-12-12T13:59:52.299Z,6.50
2018-12-12T14:02:20.467Z,6.50
2018-12-12T14:04:48.622Z,6.20
2018-12-12T14:07:16.865Z,6.40
2018-12-12T14:09:44.981Z,6.30
2018-12-12T14:12:17.350Z,6.20
2018-12-12T14:14:43.300Z,6.10
2018-12-12T14:17:11.432Z,6.10
2018-12-12T14:19:39.586Z,5.90
2018-12-12T14:22:07.707Z,5.50
2018-12-12T14:24:35.884Z,5.80
2018-12-12T14:27:04.067Z,5.70
2018-12-12T14:29:32.291Z,5.60
2018-12-12T14:32:00.429Z,5.10
2018-12-12T14:34:29.310Z,5.60
2018-12-12T14:36:57.843Z,5.50
2018-12-12T14:39:26.040Z,5.40
2018-12-12T14:41:54.164Z,5.40
2018-12-12T14:44:22.526Z,5.30
2018-12-12T14:46:50.796Z,5.80
2018-12-12T14:49:18.938Z,5.00
2018-12-12T14:51:47.139Z,5.30
2018-12-12T14:54:15.280Z,5.20
2018-12-12T14:56:43.457Z,5.10
2018-12-12T14:59:11.684Z,5.10
2018-12-12T15:01:39.955Z,5.10
2018-12-12T15:04:08.109Z,5.00
2018-12-12T15:06:36.293Z,5.00
2018-12-12T15:09:07.124Z,5.00
2018-12-12T15:11:36.013Z,5.00
2018-12-12T15:14:05.505Z,4.40
2018-12-12T15:16:33.660Z,4.60
2018-12-12T15:19:01.827Z,4.30
2018-12-12T15:21:29.912Z,4.70
2018-12-12T15:23:58.064Z,4.70
2018-12-12T15:26:26.199Z,4.60
2018-12-12T15:28:54.380Z,4.00
2018-12-12T15:31:27.491Z,4.10
2018-12-12T15:33:55.726Z,4.30
2018-12-12T15:36:23.755Z,4.30
2018-12-12T15:38:51.982Z,4.20
2018-12-12T15:41:20.076Z,4.20
2018-12-12T15:44:07.129Z,4.10
2018-12-12T15:46:36.210Z,4.00
2018-12-12T15:49:05.287Z,4.00
2018-12-12T15:51:33.471Z,3.50
2018-12-12T15:56:46.173Z,3.60
2018-12-12T15:59:15.764Z,3.50
2018-12-12T16:01:46.047Z,3.40
2018-12-12T16:04:14.262Z,3.40
2018-12-12T16:06:42.302Z,3.30
2018-12-12T16:09:10.595Z,3.30
2018-12-12T16:11:42.495Z,2.50
2018-12-12T16:14:17.148Z,3.30
2018-12-12T16:16:48.837Z,3.30
2018-12-12T16:19:20.595Z,3.40
2018-12-12T16:21:55.140Z,3.50
2018-12-12T16:26:57.531Z,3.00
2018-12-12T16:29:28.767Z,3.80
2018-12-12T16:32:04.065Z,4.00
2018-12-12T16:34:36.365Z,4.10
2018-12-12T16:37:06.099Z,4.70
2018-12-12T16:39:38.958Z,4.20
2018-12-12T16:42:08.615Z,4.20
2018-12-12T16:44:49.607Z,4.10
2018-12-12T16:47:19.911Z,4.00
2018-12-12T16:49:51.465Z,3.90
2018-12-12T16:52:19.768Z,3.90
2018-12-12T16:54:49.873Z,3.90
2018-12-12T16:57:21.729Z,4.00
2018-12-12T16:59:55.685Z,3.70
2018-12-12T17:02:30.382Z,4.10
2018-12-12T17:05:04.984Z,4.10
2018-12-12T17:07:38.608Z,4.20
2018-12-12T17:10:12.931Z,4.20
2018-12-12T17:12:47.461Z,4.20
2018-12-12T17:15:21.478Z,4.20
2018-12-12T17:17:52.872Z,4.30
2018-12-12T17:20:22.978Z,4.70
2018-12-12T17:22:55.001Z,4.20
2018-12-12T17:27:58.497Z,4.20
2018-12-12T17:30:32.153Z,4.20
2018-12-12T17:33:04.567Z,4.20
2018-12-12T17:35:38.376Z,4.10
2018-12-12T17:38:10.943Z,4.00
2018-12-12T17:40:45.126Z,4.10
2018-12-12T17:43:17.295Z,4.10
2018-12-12T17:45:47.342Z,4.20
2018-12-12T17:48:22.162Z,4.20
2018-12-12T17:50:56.655Z,4.20
2018-12-12T17:53:28.483Z,4.10
2018-12-12T17:55:59.764Z,4.20
2018-12-12T17:58:33.529Z,5.20
2018-12-12T18:01:05.130Z,4.20
2018-12-12T18:03:39.289Z,4.30
2018-12-12T18:06:10.898Z,4.20
2018-12-12T18:08:45.676Z,4.70
2018-12-12T18:11:17.724Z,4.20
2018-12-12T18:13:51.739Z,4.10
2018-12-12T18:16:39.264Z,4.10
2018-12-12T18:19:10.993Z,4.10
2018-12-12T18:22:00.303Z,4.20
2018-12-12T18:24:35.054Z,4.20
2018-12-12T18:27:09.961Z,4.30
2018-12-12T18:29:42.286Z,4.30
2018-12-12T18:32:23.478Z,4.70
2018-12-12T18:35:02.029Z,4.30
2018-12-12T18:37:36.699Z,4.40
2018-12-12T18:40:10.595Z,4.30
2018-12-12T18:42:42.385Z,4.30
2018-12-12T18:45:16.563Z,4.70
2018-12-12T18:47:50.732Z,4.30
2018-12-12T18:50:25.114Z,4.30
2018-12-12T18:52:57.374Z,4.30
2018-12-12T18:55:31.902Z,4.30
2018-12-12T18:58:03.535Z,4.30
2018-12-12T19:00:35.815Z,4.20
2018-12-12T19:03:07.837Z,4.20
2018-12-12T19:05:40.156Z,4.70
2018-12-12T19:08:13.859Z,4.20
2018-12-12T19:10:48.812Z,4.50
2018-12-12T19:13:22.728Z,4.20
2018-12-12T19:15:56.578Z,4.20
2018-12-12T19:18:28.319Z,4.20
2018-12-12T19:21:00.181Z,4.20
2018-12-12T19:23:30.714Z,4.20
2018-12-12T19:25:58.825Z,4.20
2018-12-12T19:28:26.996Z,4.30
2018-12-12T19:30:55.265Z,4.30
2018-12-12T19:48:56.143Z,4.10
2018-12-12T19:51:24.259Z,4.20
2018-12-12T19:53:52.441Z,4.10
2018-12-12T19:56:20.652Z,4.10
2018-12-12T19:58:48.927Z,4.10
2018-12-12T20:01:17.572Z,4.20
2018-12-12T20:03:45.705Z,4.20
2018-12-12T20:06:14.206Z,4.20
2018-12-12T20:08:46.060Z,4.20
2018-12-12T20:11:30.761Z,4.70
2018-12-12T20:13:58.943Z,4.30
2018-12-12T20:16:27.268Z,4.20
2018-12-12T20:18:55.401Z,4.30
2018-12-12T20:21:24.425Z,4.20
2018-12-12T20:23:52.702Z,4.30
2018-12-12T20:26:20.938Z,4.20
2018-12-12T20:28:52.811Z,4.20
2018-12-12T20:34:31.989Z,4.20
2018-12-12T20:37:05.989Z,4.20
2018-12-12T20:39:40.055Z,4.20
2018-12-12T20:42:11.402Z,4.20
2018-12-12T20:44:43.590Z,4.20
2018-12-12T20:47:15.373Z,4.20
2018-12-12T20:49:47.824Z,4.20
2018-12-12T20:52:19.530Z,4.20
2018-12-12T20:54:53.736Z,4.10
2018-12-12T20:57:25.497Z,4.00
2018-12-12T20:59:57.150Z,4.00
2018-12-12T21:02:27.245Z,4.00
2018-12-12T21:04:57.390Z,3.90
2018-12-12T21:07:31.581Z,3.90
2018-12-12T21:10:04.426Z,3.90
2018-12-12T21:12:35.180Z,3.90
2018-12-12T21:15:10.381Z,3.90
2018-12-12T21:17:41.744Z,3.90
2018-12-12T21:20:14.399Z,4.50
2018-12-12T21:22:49.409Z,3.90
2018-12-12T21:25:21.362Z,4.50
2018-12-12T21:28:03.463Z,3.80
2018-12-12T21:30:35.529Z,3.80
2018-12-12T21:35:41.093Z,3.60
2018-12-12T21:38:15.280Z,3.50
2018-12-12T21:40:47.732Z,3.40
2018-12-12T21:43:19.994Z,3.30
2018-12-12T21:45:51.944Z,3.20
2018-12-12T21:48:21.835Z,4.30
2018-12-12T21:50:50.898Z,2.90
2018-12-12T21:53:24.458Z,2.70
2018-12-12T21:55:56.130Z,2.70
2018-12-12T21:58:29.714Z,2.60
2018-12-12T22:01:04.294Z,2.50
2018-12-12T22:03:36.432Z,2.40
2018-12-12T22:06:08.323Z,2.30
2018-12-12T22:08:40.364Z,2.20
2018-12-12T22:11:12.700Z,2.10
2018-12-12T22:13:44.606Z,2.00
2018-12-12T22:16:19.615Z,1.90
2018-12-12T22:18:53.432Z,1.90
2018-12-12T22:21:27.419Z,1.80
2018-12-12T22:23:58.909Z,1.70
2018-12-12T22:26:33.427Z,1.60
2018-12-12T22:29:07.746Z,1.60
2018-12-12T22:31:41.957Z,1.60
2018-12-12T22:36:44.852Z,0.80
2018-12-12T22:39:21.169Z,1.40
2018-12-12T22:42:14.595Z,1.40
2018-12-12T22:44:49.121Z,1.30
2018-12-12T22:47:20.874Z,1.20
2018-12-12T22:49:51.620Z,1.20
2018-12-12T22:52:23.303Z,1.20
2018-12-12T22:54:54.940Z,1.20
2018-12-12T22:57:26.141Z,1.10
2018-12-12T22:59:57.309Z,1.00
2018-12-12T23:02:27.382Z,1.00
2018-12-12T23:04:58.547Z,1.00
2018-12-12T23:07:32.178Z,1.00
2018-12-12T23:10:04.077Z,1.10
2018-12-12T23:12:33.507Z,1.20
2018-12-12T23:15:02.858Z,1.30
2018-12-12T23:17:34.970Z,1.40
2018-12-12T23:20:08.750Z,1.50
2018-12-12T23:22:49.229Z,1.50
2018-12-12T23:25:23.343Z,1.50
2018-12-12T23:27:55.275Z,1.50
2018-12-12T23:30:26.404Z,1.50
2018-12-12T23:32:58.555Z,1.50
2018-12-12T23:38:02.175Z,1.50
2018-12-12T23:40:35.721Z,1.60
2018-12-12T23:43:07.162Z,1.60
2018-12-12T23:45:38.547Z,1.70
2018-12-12T23:48:12.256Z,1.70
2018-12-12T23:50:46.472Z,1.70
2018-12-12T23:53:16.109Z,1.70
2018-12-12T23:55:50.594Z,2.30
2018-12-12T23:58:25.027Z,1.80
